createdAt,value
2022-12-15T00:01:34.774Z,33.95
2022-12-15T00:06:56.237Z,27.80
2022-12-15T00:12:19.049Z,32.67
2022-12-15T00:17:39.959Z,30.27
2022-12-15T00:23:00.816Z,29.42
2022-12-15T00:28:23.679Z,31.70
2022-12-15T00:33:44.496Z,28.90
2022-12-15T00:38:48.025Z,28.33
2022-12-15T00:43:52.869Z,35.30
2022-12-15T00:48:56.857Z,28.20
2022-12-15T00:54:18.361Z,27.48
2022-12-15T00:59:40.905Z,28.38
2022-12-15T01:05:01.839Z,29.15
2022-12-15T01:10:23.426Z,31.00
2022-12-15T01:15:46.111Z,25.88
2022-12-15T01:20:56.608Z,32.90
2022-12-15T01:31:11.674Z,28.77
2022-12-15T01:36:15.432Z,25.52
2022-12-15T01:41:19.368Z,25.20
2022-12-15T01:46:25.746Z,27.83
2022-12-15T01:51:34.700Z,23.92
2022-12-15T01:56:42.696Z,23.20
2022-12-15T02:01:49.826Z,22.40
2022-12-15T02:06:54.104Z,26.58
2022-12-15T02:12:03.137Z,25.02
2022-12-15T02:17:22.511Z,19.70
2022-12-15T02:22:45.620Z,24.52
2022-12-15T02:27:59.262Z,20.38
2022-12-15T02:33:09.968Z,25.52
2022-12-15T02:38:13.555Z,26.65
2022-12-15T02:43:17.223Z,26.10
2022-12-15T02:48:31.524Z,25.25
2022-12-15T02:53:51.802Z,22.90
2022-12-15T02:59:03.958Z,22.05
2022-12-15T03:04:11.765Z,32.58
2022-12-15T03:09:15.328Z,26.50
2022-12-15T03:14:19.061Z,28.73
2022-12-15T03:19:24.600Z,20.85
2022-12-15T03:24:28.150Z,24.10
2022-12-15T03:29:31.946Z,29.08
2022-12-15T03:34:36.986Z,22.48
2022-12-15T03:39:40.596Z,29.40
2022-12-15T03:44:44.076Z,23.17
2022-12-15T03:49:48.919Z,27.10
2022-12-15T03:54:52.497Z,29.67
2022-12-15T03:59:56.107Z,29.02
2022-12-15T04:05:00.942Z,25.20
2022-12-15T04:10:04.942Z,27.90
2022-12-15T04:15:10.395Z,22.63
2022-12-15T04:20:15.383Z,29.65
2022-12-15T04:25:38.880Z,27.35
2022-12-15T04:31:04.916Z,26.42
2022-12-15T04:36:30.616Z,26.80
2022-12-15T04:41:51.563Z,25.70
2022-12-15T04:47:13.085Z,26.77
2022-12-15T04:52:35.437Z,29.08
2022-12-15T04:57:56.578Z,25.17
2022-12-15T05:03:22.914Z,31.77
2022-12-15T05:08:44.979Z,30.33
2022-12-15T05:14:05.852Z,30.50
2022-12-15T05:19:26.468Z,28.00
2022-12-15T05:24:48.980Z,28.95
2022-12-15T05:30:09.819Z,34.47
2022-12-15T05:35:13.334Z,30.65
2022-12-15T05:40:18.224Z,34.20
2022-12-15T05:45:21.685Z,30.85
2022-12-15T05:50:25.309Z,36.80
2022-12-15T05:55:30.552Z,29.13
2022-12-15T06:00:34.054Z,27.92
2022-12-15T06:05:37.567Z,36.15
2022-12-15T06:10:42.468Z,32.45
2022-12-15T06:15:56.094Z,47.92
2022-12-15T06:21:01.390Z,28.23
2022-12-15T06:26:12.518Z,35.97
2022-12-15T06:31:18.035Z,26.65
2022-12-15T06:36:24.052Z,31.13
2022-12-15T06:41:30.527Z,38.40
2022-12-15T06:46:35.693Z,31.20
2022-12-15T06:51:39.527Z,33.78
2022-12-15T06:56:44.351Z,36.63
2022-12-15T07:01:48.259Z,30.90
2022-12-15T07:06:52.006Z,38.88
2022-12-15T07:11:56.856Z,32.42
2022-12-15T07:17:00.463Z,34.47
2022-12-15T07:22:04.119Z,35.15
2022-12-15T07:27:09.245Z,33.38
2022-12-15T07:32:12.888Z,37.80
2022-12-15T07:37:17.076Z,36.60
2022-12-15T07:42:22.407Z,38.05
2022-12-15T07:47:28.252Z,31.85
2022-12-15T07:52:32.344Z,36.75
2022-12-15T07:57:37.608Z,38.03
2022-12-15T08:02:42.157Z,35.47
2022-12-15T08:07:45.816Z,35.97
2022-12-15T08:12:50.977Z,37.47
2022-12-15T08:17:54.711Z,32.92
2022-12-15T08:22:58.746Z,36.95
2022-12-15T08:28:05.086Z,53.20
2022-12-15T08:33:08.657Z,33.85
2022-12-15T08:38:12.187Z,39.90
2022-12-15T08:43:17.196Z,39.97
2022-12-15T08:48:20.971Z,37.47
2022-12-15T08:53:32.483Z,33.00
2022-12-15T08:58:38.015Z,47.63
2022-12-15T09:03:42.206Z,57.05
2022-12-15T09:08:50.182Z,52.08
2022-12-15T09:13:55.902Z,48.13
2022-12-15T09:19:01.118Z,41.00
2022-12-15T09:24:05.907Z,44.38
2022-12-15T09:29:13.098Z,42.63
2022-12-15T09:34:18.328Z,39.40
2022-12-15T09:39:22.467Z,42.78
2022-12-15T09:44:29.697Z,43.65
2022-12-15T09:49:49.898Z,47.50
2022-12-15T09:54:53.782Z,48.83
2022-12-15T10:00:07.514Z,45.88
2022-12-15T10:05:18.131Z,41.15
2022-12-15T10:15:42.446Z,46.92
2022-12-15T10:20:46.413Z,46.28
2022-12-15T10:26:01.373Z,51.75
2022-12-15T10:31:17.390Z,41.67
2022-12-15T10:36:23.240Z,45.03
2022-12-15T10:41:26.965Z,44.95
2022-12-15T10:46:32.895Z,41.95
2022-12-15T10:51:43.932Z,35.55
2022-12-15T10:56:53.307Z,39.08
2022-12-15T11:02:27.118Z,45.95
2022-12-15T11:07:37.009Z,41.85
2022-12-15T11:12:58.369Z,45.72
2022-12-15T11:18:11.697Z,46.40
2022-12-15T11:23:23.141Z,44.97
2022-12-15T11:28:34.157Z,44.80
2022-12-15T11:38:48.569Z,47.50
2022-12-15T11:44:07.877Z,52.20
2022-12-15T11:49:48.479Z,47.25
2022-12-15T11:54:56.810Z,41.53
2022-12-15T12:00:09.746Z,43.58
2022-12-15T12:05:36.684Z,46.35
2022-12-15T12:10:50.554Z,41.50
2022-12-15T12:16:03.417Z,47.08
2022-12-15T12:21:12.137Z,44.95
2022-12-15T12:26:23.907Z,48.13
2022-12-15T12:31:36.093Z,43.22
2022-12-15T12:36:43.509Z,37.83
2022-12-15T12:41:57.401Z,43.20
2022-12-15T12:47:10.494Z,43.15
2022-12-15T12:52:23.734Z,45.38
2022-12-15T12:57:37.187Z,43.72
2022-12-15T13:02:54.807Z,43.97
2022-12-15T13:08:28.495Z,46.28
2022-12-15T13:13:47.450Z,43.65
2022-12-15T13:19:06.876Z,48.08
2022-12-15T13:24:23.906Z,54.25
2022-12-15T13:29:27.608Z,49.75
2022-12-15T13:34:38.725Z,50.25
2022-12-15T13:39:59.318Z,48.00
2022-12-15T13:45:43.106Z,43.47
2022-12-15T13:50:56.615Z,52.20
2022-12-15T13:56:24.686Z,48.63
2022-12-15T14:01:32.672Z,48.47
2022-12-15T14:06:41.211Z,58.92
2022-12-15T14:11:55.271Z,45.47
2022-12-15T14:17:02.238Z,45.03
2022-12-15T14:27:50.645Z,47.97
2022-12-15T14:32:59.418Z,52.53
2022-12-15T14:38:07.652Z,62.75
2022-12-15T14:43:18.170Z,55.47
2022-12-15T14:48:44.817Z,59.85
2022-12-15T14:53:53.288Z,50.92
2022-12-15T14:59:04.111Z,62.58
2022-12-15T15:09:22.325Z,48.45
2022-12-15T15:14:30.361Z,50.67
2022-12-15T15:19:39.352Z,50.10
2022-12-15T15:24:51.799Z,58.53
2022-12-15T15:30:14.748Z,55.13
2022-12-15T15:35:19.263Z,46.75
2022-12-15T15:40:24.264Z,60.67
2022-12-15T15:45:29.511Z,50.67
2022-12-15T15:50:33.451Z,41.22
2022-12-15T15:55:39.845Z,48.22
2022-12-15T16:00:45.054Z,46.33
2022-12-15T16:05:48.995Z,49.92
2022-12-15T16:10:53.211Z,53.30
2022-12-15T16:15:58.476Z,61.22
2022-12-15T16:21:02.303Z,57.60
2022-12-15T16:26:07.772Z,54.30
2022-12-15T16:31:17.042Z,53.63
2022-12-15T16:36:22.323Z,52.78
2022-12-15T16:41:28.056Z,52.30
2022-12-15T16:46:33.114Z,56.83
2022-12-15T16:51:40.550Z,56.33
2022-12-15T16:56:44.198Z,50.55
2022-12-15T17:01:49.886Z,55.00
2022-12-15T17:06:54.271Z,47.47
2022-12-15T17:11:59.392Z,50.92
2022-12-15T17:17:10.462Z,52.15
2022-12-15T17:22:16.529Z,48.08
2022-12-15T17:27:26.889Z,61.50
2022-12-15T17:32:32.187Z,56.65
2022-12-15T17:37:35.831Z,70.80
2022-12-15T17:42:39.417Z,61.97
2022-12-15T17:47:45.155Z,60.90
2022-12-15T17:52:49.994Z,60.92
2022-12-15T17:57:55.791Z,51.90
2022-12-15T18:03:02.277Z,54.15
2022-12-15T18:08:14.478Z,57.00
2022-12-15T18:13:19.970Z,51.00
2022-12-15T18:18:26.009Z,52.30
2022-12-15T18:23:32.395Z,48.75
2022-12-15T18:28:36.780Z,54.30
2022-12-15T18:33:41.674Z,56.95
2022-12-15T18:38:45.496Z,53.75
2022-12-15T18:43:49.118Z,48.85
2022-12-15T18:48:56.037Z,58.55
2022-12-15T18:53:59.806Z,57.13
2022-12-15T18:59:03.537Z,56.00
2022-12-15T19:04:08.745Z,51.55
2022-12-15T19:09:17.016Z,54.47
2022-12-15T19:14:34.506Z,52.33
2022-12-15T19:19:57.104Z,54.40
2022-12-15T19:25:02.429Z,51.50
2022-12-15T19:30:14.929Z,45.60
2022-12-15T19:35:20.730Z,47.78
2022-12-15T19:40:27.587Z,53.17
2022-12-15T19:45:33.678Z,61.03
2022-12-15T19:50:40.701Z,49.83
2022-12-15T19:55:45.518Z,49.70
2022-12-15T20:00:49.965Z,62.65
2022-12-15T20:05:56.486Z,50.78
2022-12-15T20:11:00.183Z,50.88
2022-12-15T20:16:03.701Z,50.95
2022-12-15T20:21:11.367Z,56.45
2022-12-15T20:26:15.196Z,49.45
2022-12-15T20:31:23.324Z,59.70
2022-12-15T20:36:31.121Z,53.00
2022-12-15T20:41:34.974Z,55.78
2022-12-15T20:46:39.004Z,54.85
2022-12-15T20:51:44.812Z,58.58
2022-12-15T20:56:49.699Z,48.78
2022-12-15T21:01:53.619Z,55.85
2022-12-15T21:07:00.045Z,49.70
2022-12-15T21:12:09.001Z,49.72
2022-12-15T21:17:15.830Z,45.08
2022-12-15T21:22:23.708Z,43.47
2022-12-15T21:27:29.366Z,51.58
2022-12-15T21:32:33.496Z,49.00
2022-12-15T21:37:38.414Z,49.88
2022-12-15T21:42:42.086Z,44.92
2022-12-15T21:48:03.622Z,43.47
2022-12-15T21:53:16.072Z,41.65
2022-12-15T21:58:22.071Z,46.13
2022-12-15T22:03:25.842Z,46.65
2022-12-15T22:08:31.163Z,48.67
2022-12-15T22:13:35.216Z,41.70
2022-12-15T22:18:38.823Z,50.92
2022-12-15T22:23:43.732Z,53.72
2022-12-15T22:28:47.503Z,58.03
2022-12-15T22:33:51.388Z,46.63
2022-12-15T22:38:56.357Z,63.78
2022-12-15T22:44:00.086Z,56.78
2022-12-15T22:49:03.783Z,47.58
2022-12-15T22:54:18.831Z,45.20
2022-12-15T22:59:27.773Z,46.67
2022-12-15T23:04:32.897Z,50.00
2022-12-15T23:09:37.753Z,49.25
2022-12-15T23:14:58.644Z,43.85
2022-12-15T23:20:02.078Z,44.65
2022-12-15T23:25:07.956Z,48.63
2022-12-15T23:30:13.058Z,46.67
2022-12-15T23:35:16.768Z,42.55
2022-12-15T23:40:22.404Z,44.20
2022-12-15T23:45:26.129Z,47.03
2022-12-15T23:50:29.557Z,44.10
2022-12-15T23:55:36.128Z,52.72
